createdAt,value
2017-06-08T00:00:57.443Z,73.6
2017-06-08T00:01:58.734Z,73.69
2017-06-08T00:02:59.981Z,73.41
2017-06-08T00:04:01.242Z,73.88
2017-06-08T00:05:02.492Z,73.5
2017-06-08T00:06:03.738Z,73.79
2017-06-08T00:07:04.987Z,73.5
2017-06-08T00:08:06.250Z,73.32
2017-06-08T00:09:07.485Z,73.08
2017-06-08T00:10:08.777Z,73.37
2017-06-08T00:11:10.029Z,73.6
2017-06-08T00:12:11.289Z,73.32
2017-06-08T00:13:12.536Z,73.41
2017-06-08T00:14:13.788Z,73.22
2017-06-08T00:15:15.121Z,72.74
2017-06-08T00:16:16.393Z,72.36
2017-06-08T00:17:17.641Z,72.74
2017-06-08T00:18:18.892Z,72.55
2017-06-08T00:19:20.135Z,71.88
2017-06-08T00:20:21.395Z,72.07
2017-06-08T00:21:22.643Z,72.26
2017-06-08T00:22:23.894Z,72.07
2017-06-08T00:23:25.208Z,72.17
2017-06-08T00:24:26.454Z,71.41
2017-06-08T00:25:27.701Z,71.02
2017-06-08T00:26:28.956Z,71.69
2017-06-08T00:27:30.204Z,71.02
2017-06-08T00:28:31.455Z,70.73
2017-06-08T00:29:32.759Z,70.83
2017-06-08T00:30:34.006Z,70.83
2017-06-08T00:31:35.252Z,70.45
2017-06-08T00:32:36.484Z,70.83
2017-06-08T00:33:37.748Z,70.83
2017-06-08T00:34:39.114Z,70.64
2017-06-08T00:35:40.362Z,70.92
2017-06-08T00:36:41.613Z,70.73
2017-06-08T00:37:42.862Z,70.16
2017-06-08T00:38:44.117Z,70.45
2017-06-08T00:39:45.606Z,70.16
2017-06-08T00:40:46.929Z,70.16
2017-06-08T00:41:48.222Z,70.16
2017-06-08T00:42:49.483Z,70.16
2017-06-08T00:43:50.706Z,70.26
2017-06-08T00:44:51.947Z,70.07
2017-06-08T00:45:53.310Z,70.54
2017-06-08T00:46:54.585Z,69.97
2017-06-08T00:47:55.934Z,69.49
2017-06-08T00:48:57.179Z,69.49
2017-06-08T00:49:58.420Z,69.02
2017-06-08T00:50:59.667Z,69.68
2017-06-08T00:52:00.967Z,69.21
2017-06-08T00:53:02.263Z,69.02
2017-06-08T00:54:03.498Z,69.31
2017-06-08T00:55:04.737Z,69.4
2017-06-08T00:56:06.001Z,69.11
2017-06-08T00:57:07.243Z,69.49
2017-06-08T00:58:08.511Z,68.73
2017-06-08T00:59:09.798Z,68.73
2017-06-08T01:00:11.002Z,68.63
2017-06-08T01:01:12.356Z,68.73
2017-06-08T01:02:13.572Z,68.44
2017-06-08T01:03:14.822Z,68.26
2017-06-08T01:04:16.090Z,68.26
2017-06-08T01:05:17.427Z,68.44
2017-06-08T01:06:18.678Z,68.44
2017-06-08T01:07:19.977Z,68.44
2017-06-08T01:08:21.185Z,68.35
2017-06-08T01:09:22.425Z,67.97
2017-06-08T01:10:23.703Z,67.87
2017-06-08T01:11:25.027Z,67.97
2017-06-08T01:12:26.276Z,68.06
2017-06-08T01:13:27.506Z,68.26
2017-06-08T01:14:28.760Z,68.73
2017-06-08T01:15:29.997Z,68.54
2017-06-08T01:16:31.305Z,68.44
2017-06-08T01:17:32.568Z,68.26
2017-06-08T01:18:33.814Z,68.44
2017-06-08T01:19:35.105Z,68.73
2017-06-08T01:20:36.349Z,68.63
2017-06-08T01:21:37.583Z,68.73
2017-06-08T01:22:38.838Z,68.26
2017-06-08T01:23:40.073Z,68.44
2017-06-08T01:24:41.411Z,68.35
2017-06-08T01:25:42.745Z,68.82
2017-06-08T01:26:43.875Z,69.11
2017-06-08T01:27:45.204Z,69.31
2017-06-08T01:28:46.427Z,68.73
2017-06-08T01:29:47.736Z,69.02
2017-06-08T01:30:48.985Z,68.54
2017-06-08T01:31:50.235Z,68.63
2017-06-08T01:32:51.483Z,69.31
2017-06-08T01:33:52.797Z,69.02
2017-06-08T01:34:54.045Z,69.02
2017-06-08T01:35:55.369Z,68.73
2017-06-08T01:36:56.766Z,69.31
2017-06-08T01:37:58.050Z,69.11
2017-06-08T01:38:59.288Z,69.02
2017-06-08T01:40:00.529Z,68.82
2017-06-08T01:41:01.786Z,69.11
2017-06-08T01:42:03.026Z,68.92
2017-06-08T01:43:04.272Z,69.49
2017-06-08T01:44:05.511Z,69.68
2017-06-08T01:45:06.774Z,69.87
2017-06-08T01:46:07.996Z,70.16
2017-06-08T01:47:09.241Z,69.87
2017-06-08T01:48:10.595Z,69.97
2017-06-08T01:49:11.866Z,69.4
2017-06-08T01:50:13.098Z,69.68
2017-06-08T01:51:14.327Z,69.78
2017-06-08T01:52:15.566Z,69.49
2017-06-08T01:53:16.826Z,69.4
2017-06-08T01:54:18.107Z,69.4
2017-06-08T01:55:19.568Z,69.68
2017-06-08T01:56:20.828Z,69.49
2017-06-08T01:57:22.072Z,69.11
2017-06-08T01:58:23.652Z,69.49
2017-06-08T01:59:24.787Z,69.49
2017-06-08T02:00:26.027Z,69.21
2017-06-08T02:01:27.270Z,69.02
2017-06-08T02:02:28.515Z,69.02
2017-06-08T02:03:29.798Z,68.92
2017-06-08T02:04:31.105Z,69.21
2017-06-08T02:05:32.344Z,69.02
2017-06-08T02:06:33.599Z,69.31
2017-06-08T02:07:34.914Z,68.92
2017-06-08T02:08:36.149Z,69.02
2017-06-08T02:09:37.398Z,69.21
2017-06-08T02:10:38.680Z,69.21
2017-06-08T02:11:39.890Z,69.49
2017-06-08T02:12:41.133Z,69.31
2017-06-08T02:13:42.384Z,69.11
2017-06-08T02:14:43.647Z,69.21
2017-06-08T02:15:44.899Z,69.21
2017-06-08T02:16:46.154Z,68.73
2017-06-08T02:17:47.474Z,69.02
2017-06-08T02:18:48.755Z,68.92
2017-06-08T02:19:49.994Z,69.11
2017-06-08T02:20:51.239Z,69.11
2017-06-08T02:21:52.484Z,69.59
2017-06-08T02:22:53.746Z,69.49
2017-06-08T02:23:55.013Z,69.4
2017-06-08T02:24:56.270Z,69.68
2017-06-08T02:25:57.517Z,69.87
2017-06-08T02:26:58.832Z,69.68
2017-06-08T02:28:00.163Z,69.59
2017-06-08T02:29:01.412Z,69.4
2017-06-08T02:30:02.682Z,69.34
2017-06-08T02:31:03.902Z,69.49
2017-06-08T02:32:05.144Z,69.68
2017-06-08T02:33:06.393Z,69.91
2017-06-08T02:34:07.640Z,69.82
2017-06-08T02:35:08.900Z,69.91
2017-06-08T02:36:10.169Z,70.01
2017-06-08T02:37:11.438Z,69.91
2017-06-08T02:38:12.849Z,69.82
2017-06-08T02:39:14.090Z,69.72
2017-06-08T02:40:15.325Z,70.26
2017-06-08T02:41:16.566Z,70.1
2017-06-08T02:42:17.809Z,70.2
2017-06-08T02:43:19.072Z,69.82
2017-06-08T02:44:20.327Z,70.39
2017-06-08T02:45:21.599Z,70.2
2017-06-08T02:46:22.829Z,69.91
2017-06-08T02:47:24.072Z,69.91
2017-06-08T02:48:25.319Z,69.82
2017-06-08T02:49:26.572Z,70.48
2017-06-08T02:50:28.039Z,70.2
2017-06-08T02:51:29.308Z,70.1
2017-06-08T02:52:30.546Z,70.58
2017-06-08T02:53:31.792Z,70.29
2017-06-08T02:54:33.046Z,70.2
2017-06-08T02:55:34.262Z,70.67
2017-06-08T02:56:35.543Z,70.2
2017-06-08T02:57:36.790Z,70.2
2017-06-08T02:58:38.092Z,70.2
2017-06-08T02:59:39.351Z,70.96
2017-06-08T03:00:40.613Z,70.87
2017-06-08T03:01:41.843Z,70.39
2017-06-08T03:02:43.136Z,70.77
2017-06-08T03:03:44.387Z,70.58
2017-06-08T03:04:45.635Z,70.67
2017-06-08T03:05:46.895Z,71.44
2017-06-08T03:06:48.142Z,70.58
2017-06-08T03:07:49.411Z,70.87
2017-06-08T03:08:50.769Z,70.77
2017-06-08T03:09:52.137Z,71.06
2017-06-08T03:10:53.369Z,71.44
2017-06-08T03:11:54.621Z,70.77
2017-06-08T03:12:55.866Z,70.77
2017-06-08T03:13:57.136Z,71.34
2017-06-08T03:14:58.416Z,71.44
2017-06-08T03:15:59.634Z,70.67
2017-06-08T03:17:00.999Z,70.67
2017-06-08T03:18:02.239Z,70.58
2017-06-08T03:19:03.492Z,70.67
2017-06-08T03:20:04.805Z,70.48
2017-06-08T03:21:06.061Z,71.44
2017-06-08T03:22:07.310Z,71.34
2017-06-08T03:23:08.546Z,70.39
2017-06-08T03:24:09.845Z,70.58
2017-06-08T03:25:11.226Z,70.77
2017-06-08T03:26:12.491Z,70.77
2017-06-08T03:27:13.748Z,70.58
2017-06-08T03:28:15.054Z,70.67
2017-06-08T03:29:16.406Z,70.87
2017-06-08T03:30:17.663Z,70.87
2017-06-08T03:31:19.052Z,70.67
2017-06-08T03:32:20.284Z,70.58
2017-06-08T03:33:21.520Z,70.81
2017-06-08T03:34:22.838Z,71.19
2017-06-08T03:35:24.073Z,70.9
2017-06-08T03:36:25.386Z,70.48
2017-06-08T03:37:26.643Z,70.96
2017-06-08T03:38:27.896Z,70.33
2017-06-08T03:39:29.163Z,70.61
2017-06-08T03:40:30.448Z,70.23
2017-06-08T03:41:31.688Z,70.23
2017-06-08T03:42:32.929Z,70.42
2017-06-08T03:43:34.179Z,70.23
2017-06-08T03:44:35.410Z,70.14
2017-06-08T03:45:36.723Z,70.23
2017-06-08T03:46:37.984Z,70.42
2017-06-08T03:47:39.239Z,70.23
2017-06-08T03:48:40.476Z,70.61
2017-06-08T03:49:41.765Z,70.14
2017-06-08T03:50:43.034Z,70.23
2017-06-08T03:51:44.407Z,70.42
2017-06-08T03:52:45.552Z,70.9
2017-06-08T03:53:46.804Z,70.9
2017-06-08T03:54:48.071Z,70.61
2017-06-08T03:55:49.329Z,71.19
2017-06-08T03:56:50.562Z,70.71
2017-06-08T03:57:51.822Z,70.81
2017-06-08T03:58:53.147Z,71.47
2017-06-08T03:59:54.479Z,71.19
2017-06-08T04:00:55.741Z,71
2017-06-08T04:01:56.979Z,71
2017-06-08T04:02:58.236Z,70.42
2017-06-08T04:03:59.510Z,70.9
2017-06-08T04:05:00.756Z,71.67
2017-06-08T04:06:02.099Z,71.57
2017-06-08T04:07:03.242Z,71.28
2017-06-08T04:08:04.499Z,71.38
2017-06-08T04:09:05.732Z,71.67
2017-06-08T04:10:06.990Z,72.14
2017-06-08T04:11:08.287Z,72.72
2017-06-08T04:12:09.616Z,72.81
2017-06-08T04:13:10.875Z,73
2017-06-08T04:14:12.116Z,73.48
2017-06-08T04:15:13.363Z,73.67
2017-06-08T04:16:14.690Z,74.15
2017-06-08T04:17:15.963Z,74.63
2017-06-08T04:18:17.204Z,74.63
2017-06-08T04:19:18.441Z,74.63
2017-06-08T04:20:19.678Z,75.2
2017-06-08T04:21:20.929Z,75.68
2017-06-08T04:22:22.176Z,75.59
2017-06-08T04:23:23.428Z,75.64
2017-06-08T04:24:24.708Z,76.12
2017-06-08T04:25:25.935Z,76.4
2017-06-08T04:26:27.176Z,77.17
2017-06-08T04:27:28.431Z,77.94
2017-06-08T04:28:29.669Z,77.65
2017-06-08T04:29:30.934Z,78.41
2017-06-08T04:30:32.206Z,78.6
2017-06-08T04:31:33.437Z,79.08
2017-06-08T04:32:34.698Z,79.27
2017-06-08T04:33:35.939Z,79.27
2017-06-08T04:34:37.203Z,79.65
2017-06-08T04:35:38.457Z,79.56
2017-06-08T04:36:39.714Z,80.04
2017-06-08T04:37:41.028Z,80.41
2017-06-08T04:38:42.348Z,80.9
2017-06-08T04:39:43.500Z,81.18
2017-06-08T04:40:44.741Z,81.47
2017-06-08T04:41:45.989Z,81.76
2017-06-08T04:42:47.239Z,82
2017-06-08T04:43:48.488Z,82.42
2017-06-08T04:44:49.748Z,83.18
2017-06-08T04:45:51.003Z,82.48
2017-06-08T04:46:52.255Z,83.24
2017-06-08T04:47:53.581Z,83.53
2017-06-08T04:48:54.853Z,83.72
2017-06-08T04:49:56.194Z,84.39
2017-06-08T04:50:57.451Z,84.67
2017-06-08T04:51:58.701Z,84.77
2017-06-08T04:52:59.945Z,84.96
2017-06-08T04:54:01.177Z,85.63
2017-06-08T04:55:02.626Z,85.72
2017-06-08T04:56:03.861Z,86.1
2017-06-08T04:57:05.117Z,86.2
2017-06-08T04:58:06.354Z,86.87
2017-06-08T04:59:07.609Z,86.96
2017-06-08T05:00:08.982Z,86.68
2017-06-08T05:01:10.115Z,87.06
2017-06-08T05:02:11.368Z,87.35
2017-06-08T05:03:12.647Z,87.25
2017-06-08T05:04:13.910Z,87.35
2017-06-08T05:05:15.167Z,87.44
2017-06-08T05:06:16.410Z,87.44
2017-06-08T05:07:17.699Z,87.92
2017-06-08T05:08:18.962Z,88.2
2017-06-08T05:09:20.197Z,88.11
2017-06-08T05:10:21.436Z,88.01
2017-06-08T05:11:22.685Z,88.01
2017-06-08T05:12:23.938Z,87.82
2017-06-08T05:13:25.183Z,88.01
2017-06-08T05:14:26.536Z,88.01
2017-06-08T05:15:27.781Z,88.3
2017-06-08T05:16:29.051Z,88.4
2017-06-08T05:17:30.269Z,88.87
2017-06-08T05:18:31.548Z,88.68
2017-06-08T05:19:32.800Z,88.4
2017-06-08T05:20:34.052Z,88.78
2017-06-08T05:21:35.299Z,88.59
2017-06-08T05:22:36.625Z,88.68
2017-06-08T05:23:37.843Z,88.78
2017-06-08T05:24:39.121Z,88.4
2017-06-08T05:25:40.374Z,88.59
2017-06-08T05:26:41.643Z,88.82
2017-06-08T05:27:42.918Z,88.78
2017-06-08T05:28:44.141Z,88.44
2017-06-08T05:29:45.385Z,88.06
2017-06-08T05:30:46.637Z,87.96
2017-06-08T05:31:47.929Z,88.06
2017-06-08T05:32:49.169Z,87.68
2017-06-08T05:33:50.408Z,87.77
2017-06-08T05:34:51.666Z,87.87
2017-06-08T05:35:52.910Z,87.68
2017-06-08T05:36:54.151Z,87.39
2017-06-08T05:37:55.499Z,87.48
2017-06-08T05:38:56.893Z,87.77
2017-06-08T05:39:58.116Z,87.2
2017-06-08T05:40:59.355Z,87.1
2017-06-08T05:42:00.611Z,87.29
2017-06-08T05:43:01.857Z,86.63
2017-06-08T05:44:03.132Z,86.72
2017-06-08T05:45:04.408Z,86.57
2017-06-08T05:46:05.698Z,86.19
2017-06-08T05:47:06.943Z,86
2017-06-08T05:48:08.180Z,85.71
2017-06-08T05:49:09.538Z,85.81
2017-06-08T05:50:10.893Z,85.66
2017-06-08T05:51:12.089Z,84.76
2017-06-08T05:52:13.391Z,84.66
2017-06-08T05:53:14.645Z,84.03
2017-06-08T05:54:15.896Z,84.52
2017-06-08T05:55:17.210Z,83.84
2017-06-08T05:56:18.464Z,83.56
2017-06-08T05:57:19.713Z,83.27
2017-06-08T05:58:20.997Z,83.56
2017-06-08T05:59:22.376Z,83.56
2017-06-08T06:00:23.621Z,82.7
2017-06-08T06:01:24.879Z,82.51
2017-06-08T06:02:26.190Z,82.7
2017-06-08T06:03:27.451Z,82.12
2017-06-08T06:04:28.769Z,82.03
2017-06-08T06:05:30.006Z,82.03
2017-06-08T06:06:31.360Z,82.07
2017-06-08T06:07:32.615Z,81.97
2017-06-08T06:08:33.874Z,80.92
2017-06-08T06:09:35.187Z,80
2017-06-08T06:10:36.451Z,79.52
2017-06-08T06:11:37.710Z,78.95
2017-06-08T06:12:38.953Z,77.65
2017-06-08T06:13:40.210Z,76.98
2017-06-08T06:14:41.462Z,75.58
2017-06-08T06:15:42.888Z,73.95
2017-06-08T06:16:44.180Z,73.9
2017-06-08T06:17:45.404Z,73.13
2017-06-08T06:18:46.659Z,72.36
2017-06-08T06:19:48.032Z,72.36
2017-06-08T06:20:49.331Z,72.11
2017-06-08T06:21:50.556Z,71.78
2017-06-08T06:22:51.803Z,71.69
2017-06-08T06:23:53.052Z,71.82
2017-06-08T06:24:54.291Z,70.76
2017-06-08T06:25:55.551Z,70.76
2017-06-08T06:26:56.801Z,70.76
2017-06-08T06:27:58.101Z,71.25
2017-06-08T06:28:59.369Z,71.53
2017-06-08T06:30:00.622Z,70.83
2017-06-08T06:31:01.877Z,71.78
2017-06-08T06:32:03.219Z,72.07
2017-06-08T06:33:04.568Z,72.36
2017-06-08T06:34:05.820Z,72.27
2017-06-08T06:35:07.051Z,71.98
2017-06-08T06:36:08.300Z,72.55
2017-06-08T06:37:09.540Z,71.59
2017-06-08T06:38:10.839Z,71.25
2017-06-08T06:39:12.122Z,70.29
2017-06-08T06:40:13.326Z,69.74
2017-06-08T06:41:14.602Z,69.36
2017-06-08T06:42:15.847Z,67.73
2017-06-08T06:43:17.238Z,67.79
2017-06-08T06:44:18.483Z,67.89
2017-06-08T06:45:19.854Z,68.37
2017-06-08T06:46:21.099Z,69.04
2017-06-08T06:47:22.324Z,69.04
2017-06-08T06:48:23.568Z,68.85
2017-06-08T06:49:24.808Z,68.75
2017-06-08T06:50:26.055Z,68.95
2017-06-08T06:51:27.367Z,68.56
2017-06-08T06:52:28.619Z,68.85
2017-06-08T06:53:29.916Z,68.85
2017-06-08T06:54:31.165Z,68.69
2017-06-08T06:55:32.420Z,67.73
2017-06-08T06:56:33.689Z,67.41
2017-06-08T06:57:34.927Z,67.89
2017-06-08T06:58:36.327Z,68.08
2017-06-08T06:59:37.452Z,68.08
2017-06-08T07:00:38.711Z,68.66
2017-06-08T07:01:39.973Z,68.75
2017-06-08T07:02:41.227Z,68.08
2017-06-08T07:03:42.466Z,68.72
2017-06-08T07:04:43.746Z,69.1
2017-06-08T07:05:45.003Z,69.01
2017-06-08T07:06:46.255Z,69.01
2017-06-08T07:07:47.510Z,69.1
2017-06-08T07:08:48.771Z,69.1
2017-06-08T07:09:50.110Z,69.39
2017-06-08T07:10:51.358Z,69.29
2017-06-08T07:11:52.780Z,69.2
2017-06-08T07:12:54.005Z,69.77
2017-06-08T07:13:55.372Z,68.91
2017-06-08T07:14:56.621Z,68.75
2017-06-08T07:15:57.906Z,68.66
2017-06-08T07:16:59.172Z,68.66
2017-06-08T07:18:00.446Z,67.22
2017-06-08T07:19:01.692Z,67.41
2017-06-08T07:20:02.953Z,66.83
2017-06-08T07:21:04.195Z,66.64
2017-06-08T07:22:05.457Z,66.26
2017-06-08T07:23:06.677Z,66.19
2017-06-08T07:24:07.965Z,66.29
2017-06-08T07:25:09.212Z,65.62
2017-06-08T07:26:10.445Z,66.39
2017-06-08T07:27:11.816Z,65.91
2017-06-08T07:28:13.145Z,65.43
2017-06-08T07:29:14.386Z,65.43
2017-06-08T07:30:15.642Z,65.05
2017-06-08T07:31:16.912Z,64.95
2017-06-08T07:32:18.185Z,64.76
2017-06-08T07:33:19.412Z,63.6
2017-06-08T07:34:20.661Z,63.7
2017-06-08T07:35:22.015Z,63.7
2017-06-08T07:36:23.271Z,64.09
2017-06-08T07:37:24.521Z,63.6
2017-06-08T07:38:25.791Z,63.06
2017-06-08T07:39:27.036Z,63.16
2017-06-08T07:40:28.277Z,63.25
2017-06-08T07:41:29.575Z,63.16
2017-06-08T07:42:30.853Z,63.25
2017-06-08T07:43:32.102Z,63.06
2017-06-08T07:44:33.382Z,63.45
2017-06-08T07:45:34.607Z,64.47
2017-06-08T07:46:36.028Z,64.5
2017-06-08T07:47:37.269Z,64.59
2017-06-08T07:48:38.511Z,63.73
2017-06-08T07:49:39.750Z,63.35
2017-06-08T07:50:41.025Z,62.77
2017-06-08T07:51:42.282Z,62.81
2017-06-08T07:52:43.545Z,62.9
2017-06-08T07:53:44.846Z,62.42
2017-06-08T07:54:46.102Z,62.04
2017-06-08T07:55:47.371Z,62.52
2017-06-08T07:56:48.623Z,61.72
2017-06-08T07:57:49.863Z,62.01
2017-06-08T07:58:51.110Z,62.77
2017-06-08T07:59:52.368Z,62.84
2017-06-08T08:00:53.624Z,62.77
2017-06-08T08:01:54.885Z,63.06
2017-06-08T08:02:56.153Z,62.96
2017-06-08T08:03:57.493Z,63.83
2017-06-08T08:04:58.948Z,63.35
2017-06-08T08:06:00.132Z,63.06
2017-06-08T08:07:01.392Z,62.77
2017-06-08T08:08:02.631Z,61.91
2017-06-08T08:09:03.880Z,61.84
2017-06-08T08:10:05.138Z,61.75
2017-06-08T08:11:06.380Z,61.36
2017-06-08T08:12:07.648Z,61.65
2017-06-08T08:13:08.903Z,61.49
2017-06-08T08:14:10.173Z,60.88
2017-06-08T08:15:11.434Z,60.6
2017-06-08T08:16:12.703Z,60.78
2017-06-08T08:17:14.030Z,61.08
2017-06-08T08:18:15.342Z,61.75
2017-06-08T08:19:16.666Z,61.94
2017-06-08T08:20:17.909Z,61.55
2017-06-08T08:21:19.160Z,60.98
2017-06-08T08:22:20.411Z,60.88
2017-06-08T08:23:21.706Z,60.11
2017-06-08T08:24:22.963Z,60.14
2017-06-08T08:25:24.325Z,59.28
2017-06-08T08:26:25.545Z,59.12
2017-06-08T08:27:26.784Z,59.22
2017-06-08T08:28:28.025Z,57.9
2017-06-08T08:29:29.295Z,56.67
2017-06-08T08:30:30.696Z,55.52
2017-06-08T08:31:31.960Z,55.33
2017-06-08T08:32:33.227Z,54.58
2017-06-08T08:33:34.448Z,54.68
2017-06-08T08:34:35.717Z,54.13
2017-06-08T08:35:37.089Z,53.07
2017-06-08T08:36:38.351Z,51.75
2017-06-08T08:37:39.576Z,51.48
2017-06-08T08:38:40.822Z,50.13
2017-06-08T08:39:42.065Z,49.94
2017-06-08T08:40:43.366Z,49.17
2017-06-08T08:41:44.621Z,48.71
2017-06-08T08:42:45.882Z,48.13
2017-06-08T08:43:47.139Z,47.58
2017-06-08T08:44:48.486Z,46.42
2017-06-08T08:45:49.741Z,45.96
2017-06-08T08:46:51.016Z,45.57
2017-06-08T08:47:52.259Z,45.89
2017-06-08T08:48:53.594Z,44.36
2017-06-08T08:49:54.911Z,44.17
2017-06-08T08:50:56.132Z,43.32
2017-06-08T08:51:57.401Z,43.03
2017-06-08T08:52:58.652Z,42.28
2017-06-08T08:54:00.016Z,42.18
2017-06-08T08:55:01.291Z,41.52
2017-06-08T08:56:02.623Z,42.3
2017-06-08T08:57:03.890Z,40.94
2017-06-08T08:58:05.149Z,41.52
2017-06-08T08:59:06.428Z,39.8
2017-06-08T09:00:07.685Z,39.04
2017-06-08T09:01:09.036Z,39.32
2017-06-08T09:02:10.277Z,39.12
2017-06-08T09:03:11.528Z,40.01
2017-06-08T09:04:12.775Z,38.46
2017-06-08T09:05:14.118Z,38.27
2017-06-08T09:06:15.379Z,38.56
2017-06-08T09:07:16.644Z,38.27
2017-06-08T09:08:17.930Z,38.27
2017-06-08T09:09:19.158Z,37.21
2017-06-08T09:10:20.409Z,37.69
2017-06-08T09:11:21.679Z,37.96
2017-06-08T09:12:22.939Z,38.06
2017-06-08T09:13:24.319Z,38.06
2017-06-08T09:14:25.553Z,38.73
2017-06-08T09:15:26.811Z,38.17
2017-06-08T09:16:28.063Z,37.4
2017-06-08T09:17:29.342Z,37.4
2017-06-08T09:18:30.628Z,37.23
2017-06-08T09:19:31.892Z,37.32
2017-06-08T09:20:33.131Z,37.01
2017-06-08T09:21:34.392Z,37.21
2017-06-08T09:22:35.699Z,37.49
2017-06-08T09:23:36.992Z,37.81
2017-06-08T09:24:38.242Z,37.81
2017-06-08T09:25:39.510Z,36.1
2017-06-08T09:26:40.762Z,35.05
2017-06-08T09:27:42.023Z,34.77
2017-06-08T09:28:43.288Z,33.44
2017-06-08T09:29:44.543Z,32.78
2017-06-08T09:30:45.800Z,31.24
2017-06-08T09:31:47.059Z,31.14
2017-06-08T09:32:48.338Z,30.85
2017-06-08T09:33:49.596Z,30.38
2017-06-08T09:34:50.829Z,29.79
2017-06-08T09:35:52.091Z,30.25
2017-06-08T09:36:53.457Z,31.11
2017-06-08T09:37:54.715Z,31.01
2017-06-08T09:38:55.973Z,31.3
2017-06-08T09:39:57.223Z,30.72
2017-06-08T09:40:58.490Z,30.54
2017-06-08T09:41:59.795Z,30.54
2017-06-08T09:43:01.089Z,30.64
2017-06-08T09:44:02.349Z,30.64
2017-06-08T09:45:03.605Z,30.36
2017-06-08T09:46:04.849Z,29.97
2017-06-08T09:47:06.128Z,29.5
2017-06-08T09:48:07.371Z,29.22
2017-06-08T09:49:08.649Z,28.65
2017-06-08T09:50:09.886Z,28.26
2017-06-08T09:51:11.150Z,27.76
2017-06-08T09:52:12.402Z,29.11
2017-06-08T09:53:13.667Z,29.3
2017-06-08T09:54:14.910Z,29.78
2017-06-08T09:55:16.187Z,29.96
2017-06-08T09:56:17.489Z,30.62
2017-06-08T09:57:18.741Z,31.19
2017-06-08T09:58:19.990Z,31.21
2017-06-08T09:59:21.242Z,30.64
2017-06-08T10:00:22.497Z,30.35
2017-06-08T10:01:23.783Z,30.26
2017-06-08T10:02:25.250Z,29.69
2017-06-08T10:03:26.609Z,28.34
2017-06-08T10:04:27.853Z,28.15
2017-06-08T10:05:29.130Z,27.76
2017-06-08T10:06:30.438Z,27.66
2017-06-08T10:07:31.659Z,27.66
2017-06-08T10:08:32.977Z,27.86
2017-06-08T10:09:34.209Z,27.78
2017-06-08T10:10:35.536Z,27.11
2017-06-08T10:11:36.788Z,26.82
2017-06-08T10:12:38.115Z,26.73
2017-06-08T10:13:39.377Z,25.65
2017-06-08T10:14:40.732Z,25.96
2017-06-08T10:15:42.003Z,25.37
2017-06-08T10:16:43.262Z,25.85
2017-06-08T10:17:44.906Z,26.7
2017-06-08T10:18:46.044Z,27.16
2017-06-08T10:19:47.329Z,28.51
2017-06-08T10:20:48.596Z,29.1
2017-06-08T10:21:49.844Z,29.94
2017-06-08T10:22:51.139Z,30.71
2017-06-08T10:23:52.383Z,30.12
2017-06-08T10:24:53.686Z,30.79
2017-06-08T10:25:54.937Z,31.65
2017-06-08T10:26:56.195Z,32.6
2017-06-08T10:27:57.510Z,32.79
2017-06-08T10:28:58.959Z,33.86
2017-06-08T10:30:00.179Z,33.38
2017-06-08T10:31:01.411Z,32.89
2017-06-08T10:32:02.667Z,33.36
2017-06-08T10:33:03.932Z,33.75
2017-06-08T10:34:05.205Z,33.92
2017-06-08T10:35:06.471Z,34.61
2017-06-08T10:36:07.788Z,35.17
2017-06-08T10:37:09.058Z,35.57
2017-06-08T10:38:10.320Z,35.09
2017-06-08T10:39:11.576Z,34.89
2017-06-08T10:40:12.824Z,34.8
2017-06-08T10:41:14.104Z,34.89
2017-06-08T10:42:15.416Z,34.7
2017-06-08T10:43:16.685Z,34.22
2017-06-08T10:44:17.953Z,35.19
2017-06-08T10:45:19.195Z,34.61
2017-06-08T10:46:20.448Z,34.8
2017-06-08T10:47:21.713Z,35.09
2017-06-08T10:48:22.968Z,35.17
2017-06-08T10:49:24.249Z,35.17
2017-06-08T10:50:25.506Z,34.97
2017-06-08T10:51:26.757Z,35.46
2017-06-08T10:52:28.000Z,34.97
2017-06-08T10:53:29.338Z,35.27
2017-06-08T10:54:30.572Z,36.43
2017-06-08T10:55:31.889Z,37.01
2017-06-08T10:56:33.146Z,37.38
2017-06-08T10:57:34.399Z,36.6
2017-06-08T10:58:35.659Z,36.8
2017-06-08T10:59:36.919Z,36.72
2017-06-08T11:00:38.178Z,37.19
2017-06-08T11:01:39.431Z,36.8
2017-06-08T11:02:40.764Z,37.55
2017-06-08T11:03:42.021Z,37.85
2017-06-08T11:04:43.295Z,37.92
2017-06-08T11:05:44.558Z,38.89
2017-06-08T11:06:45.790Z,38.7
2017-06-08T11:07:47.096Z,38.7
2017-06-08T11:08:48.421Z,39.18
2017-06-08T11:09:49.648Z,39.28
2017-06-08T11:10:50.922Z,38.79
2017-06-08T11:11:52.157Z,39.28
2017-06-08T11:12:53.511Z,38.99
2017-06-08T11:13:54.769Z,39.09
2017-06-08T11:14:56.045Z,38.91
2017-06-08T11:15:57.292Z,38.62
2017-06-08T11:16:58.537Z,38.71
2017-06-08T11:17:59.803Z,38.53
2017-06-08T11:19:01.128Z,37.85
2017-06-08T11:20:02.396Z,37.19
2017-06-08T11:21:03.670Z,37.77
2017-06-08T11:22:04.910Z,36.99
2017-06-08T11:23:06.179Z,37.38
2017-06-08T11:24:07.414Z,37.65
2017-06-08T11:25:08.692Z,38.62
2017-06-08T11:26:09.942Z,38.71
2017-06-08T11:27:11.231Z,39.09
2017-06-08T11:28:12.484Z,39.18
2017-06-08T11:29:13.737Z,39.49
2017-06-08T11:30:15.002Z,39.88
2017-06-08T11:31:16.247Z,40.19
2017-06-08T11:32:17.516Z,38.93
2017-06-08T11:33:18.768Z,38.93
2017-06-08T11:34:20.021Z,38.35
2017-06-08T11:35:21.267Z,38.13
2017-06-08T11:36:22.507Z,38.91
2017-06-08T11:37:23.847Z,38.81
2017-06-08T11:38:25.119Z,39.01
2017-06-08T11:39:26.434Z,39.28
2017-06-08T11:40:27.643Z,40.05
2017-06-08T11:41:28.940Z,39.86
2017-06-08T11:42:30.229Z,39.67
2017-06-08T11:43:31.456Z,39.95
2017-06-08T11:44:32.731Z,39.86
2017-06-08T11:45:33.993Z,40.05
2017-06-08T11:46:35.239Z,39.76
2017-06-08T11:47:36.487Z,39.86
2017-06-08T11:48:37.729Z,39.57
2017-06-08T11:49:39.005Z,39.86
2017-06-08T11:50:40.271Z,39.18
2017-06-08T11:51:41.522Z,39.47
2017-06-08T11:52:42.767Z,39.16
2017-06-08T11:53:44.016Z,39.64
2017-06-08T11:54:45.274Z,39.94
2017-06-08T11:55:46.524Z,39.84
2017-06-08T11:56:47.824Z,41.19
2017-06-08T11:57:49.164Z,40.71
2017-06-08T11:58:50.435Z,40.32
2017-06-08T11:59:51.732Z,40.69
2017-06-08T12:00:52.943Z,40.9
2017-06-08T12:01:54.198Z,40.81
2017-06-08T12:02:55.480Z,40.59
2017-06-08T12:03:56.714Z,41.09
2017-06-08T12:04:57.965Z,40.13
2017-06-08T12:05:59.247Z,40.13
2017-06-08T12:07:00.477Z,39.74
2017-06-08T12:08:01.726Z,39.64
2017-06-08T12:09:03.023Z,39.76
2017-06-08T12:10:04.273Z,39.67
2017-06-08T12:11:05.593Z,39.18
2017-06-08T12:12:06.833Z,39.29
2017-06-08T12:13:08.087Z,38.23
2017-06-08T12:14:09.507Z,38.62
2017-06-08T12:15:10.882Z,38.45
2017-06-08T12:16:12.143Z,38.15
2017-06-08T12:17:13.419Z,37.67
2017-06-08T12:18:14.637Z,37.77
2017-06-08T12:19:15.897Z,37.57
2017-06-08T12:20:17.167Z,38.06
2017-06-08T12:21:18.414Z,38.73
2017-06-08T12:22:19.677Z,38.64
2017-06-08T12:23:20.941Z,38.64
2017-06-08T12:24:22.192Z,38.35
2017-06-08T12:25:23.514Z,38.64
2017-06-08T12:26:24.791Z,37.87
2017-06-08T12:27:26.145Z,38.15
2017-06-08T12:28:27.409Z,37.88
2017-06-08T12:29:28.744Z,38
2017-06-08T12:30:29.975Z,36.93
2017-06-08T12:31:31.248Z,37.71
2017-06-08T12:32:32.471Z,36.54
2017-06-08T12:33:33.830Z,37.03
2017-06-08T12:34:35.071Z,37.13
2017-06-08T12:35:36.342Z,36.44
2017-06-08T12:36:37.597Z,36.25
2017-06-08T12:37:38.832Z,36.93
2017-06-08T12:38:40.087Z,36.64
2017-06-08T12:39:41.455Z,36.64
2017-06-08T12:40:42.719Z,36.64
2017-06-08T12:41:43.964Z,36.54
2017-06-08T12:42:45.223Z,37.32
2017-06-08T12:43:46.469Z,36.66
2017-06-08T12:44:47.733Z,35.78
2017-06-08T12:45:49.000Z,35.57
2017-06-08T12:46:50.214Z,36.16
2017-06-08T12:47:51.504Z,35.86
2017-06-08T12:48:52.750Z,36.16
2017-06-08T12:49:53.990Z,36.16
2017-06-08T12:50:55.284Z,36.06
2017-06-08T12:51:56.543Z,36.16
2017-06-08T12:52:57.775Z,36.64
2017-06-08T12:53:59.023Z,36.46
2017-06-08T12:55:00.272Z,36.08
2017-06-08T12:56:01.601Z,35.11
2017-06-08T12:57:02.887Z,35.4
2017-06-08T12:58:04.131Z,35.3
2017-06-08T12:59:05.381Z,34.72
2017-06-08T13:00:06.657Z,35.3
2017-06-08T13:01:07.890Z,35.19
2017-06-08T13:02:09.139Z,36.64
2017-06-08T13:03:10.394Z,35.77
2017-06-08T13:04:11.673Z,35.86
2017-06-08T13:05:12.916Z,36.24
2017-06-08T13:06:14.167Z,36.43
2017-06-08T13:07:15.434Z,36.91
2017-06-08T13:08:16.682Z,36.8
2017-06-08T13:09:17.978Z,36.51
2017-06-08T13:10:19.260Z,36.62
2017-06-08T13:11:20.550Z,36.99
2017-06-08T13:12:21.813Z,37.3